Time;durP1;ratioP1;P1;durP2;ratioP2;P2;SDS_P1;SDS_P2;PMS_P1;PMS_P2;Temp;Humidity;BMP_temperature;BMP_pressure;BME280_temperature;BME280_humidity;BME280_pressure;Samples;Min_cycle;Max_cycle;Signal;HPM_P1;HPM_P2
2023/09/09 00:01:56;;;;;;;25.10;19.33;;;;;;;19.12;100.00;101510.91;5068878;28;20090;-71
2023/09/09 00:04:22;;;;;;;25.70;20.58;;;;;;;19.03;100.00;101505.06;5067561;28;20078;-71
2023/09/09 00:06:47;;;;;;;24.17;16.83;;;;;;;19.03;100.00;101513.16;5048090;28;20029;-71
2023/09/09 00:09:14;;;;;;;24.77;15.57;;;;;;;18.96;100.00;101507.88;5048213;28;20059;-71
2023/09/09 00:11:40;;;;;;;22.92;15.07;;;;;;;18.94;100.00;101501.03;5067734;28;20033;-71
2023/09/09 00:14:05;;;;;;;27.15;19.70;;;;;;;18.94;100.00;101499.19;5068596;28;20383;-71
2023/09/09 00:16:34;;;;;;;25.50;15.35;;;;;;;18.84;100.00;101498.97;5068664;28;20032;-71
2023/09/09 00:19:00;;;;;;;21.95;15.90;;;;;;;18.81;100.00;101494.84;5068741;28;20033;-71
2023/09/09 00:21:25;;;;;;;22.60;17.05;;;;;;;18.80;100.00;101500.47;5068794;28;20078;-71
2023/09/09 00:23:51;;;;;;;23.15;16.85;;;;;;;18.83;100.00;101502.69;5067351;28;20108;-71
2023/09/09 00:26:16;;;;;;;23.13;17.95;;;;;;;18.73;100.00;101499.72;5068503;28;20094;-71
2023/09/09 00:28:41;;;;;;;23.08;17.02;;;;;;;18.76;100.00;101497.44;5068528;28;20031;-71
2023/09/09 00:31:07;;;;;;;23.20;16.67;;;;;;;18.70;100.00;101487.50;5068352;28;20021;-71
2023/09/09 00:33:32;;;;;;;22.35;16.90;;;;;;;18.78;100.00;101497.19;5068396;28;20132;-70
2023/09/09 00:36:02;;;;;;;21.60;15.88;;;;;;;18.73;100.00;101489.78;5068519;28;20055;-71
2023/09/09 00:38:28;;;;;;;22.30;15.63;;;;;;;18.79;100.00;101488.84;5068424;28;20060;-71
2023/09/09 00:41:17;;;;;;;21.50;16.05;;;;;;;18.76;100.00;101488.50;5068503;28;20091;-71
2023/09/09 00:43:43;;;;;;;23.30;15.77;;;;;;;18.70;100.00;101486.69;5066973;28;20977;-71
2023/09/09 00:46:10;;;;;;;23.95;16.00;;;;;;;18.67;100.00;101492.56;5068560;28;20032;-71
2023/09/09 00:48:39;;;;;;;20.92;15.25;;;;;;;18.67;100.00;101489.88;5066989;28;20567;-71
2023/09/09 00:51:05;;;;;;;22.27;15.30;;;;;;;18.68;100.00;101496.91;5068315;28;20369;-71
2023/09/09 00:53:32;;;;;;;22.98;15.15;;;;;;;18.64;100.00;101484.94;5068160;28;20098;-70
2023/09/09 00:55:59;;;;;;;21.20;15.65;;;;;;;18.59;100.00;101486.47;5066919;28;20021;-71
2023/09/09 00:58:25;;;;;;;22.48;16.52;;;;;;;18.59;100.00;101488.34;5068237;28;20135;-71
2023/09/09 01:00:50;;;;;;;22.25;17.20;;;;;;;18.53;100.00;101489.28;5066869;28;20622;-71
2023/09/09 01:03:16;;;;;;;21.02;14.50;;;;;;;18.55;100.00;101492.59;5066848;28;20032;-71
2023/09/09 01:05:41;;;;;;;20.92;13.82;;;;;;;18.51;100.00;101489.50;5067000;28;20028;-70
2023/09/09 01:08:07;;;;;;;21.58;14.77;;;;;;;18.52;100.00;101493.03;5068634;28;20064;-71
2023/09/09 01:10:32;;;;;;;22.17;16.35;;;;;;;18.54;100.00;101490.91;5070430;28;20502;-71
2023/09/09 01:12:58;;;;;;;21.48;15.40;;;;;;;18.51;100.00;101486.00;5072176;28;20550;-71
2023/09/09 01:15:23;;;;;;;23.27;15.60;;;;;;;18.47;100.00;101482.94;5072163;28;20047;-71
2023/09/09 01:17:49;;;;;;;25.42;17.60;;;;;;;18.47;100.00;101487.50;5072014;28;20032;-71
2023/09/09 01:20:19;;;;;;;22.42;15.73;;;;;;;18.47;100.00;101480.25;5072099;28;20032;-71
2023/09/09 01:22:48;;;;;;;20.27;15.40;;;;;;;18.47;100.00;101487.50;5071937;28;20384;-71
2023/09/09 01:25:14;;;;;;;21.90;14.50;;;;;;;18.45;100.00;101487.75;5071923;28;20017;-71
2023/09/09 01:27:41;;;;;;;22.60;15.55;;;;;;;18.36;100.00;101479.16;5070543;28;20384;-71
2023/09/09 01:30:08;;;;;;;22.40;17.00;;;;;;;18.42;100.00;101481.97;5070609;28;20043;-71
2023/09/09 01:32:34;;;;;;;23.20;15.45;;;;;;;18.36;100.00;101479.16;5071607;28;20044;-70
2023/09/09 01:34:59;;;;;;;24.27;16.02;;;;;;;18.34;100.00;101483.16;5071546;28;20400;-71
2023/09/09 01:37:24;;;;;;;22.27;15.10;;;;;;;18.24;100.00;101486.44;5071678;28;20024;-71
2023/09/09 01:39:50;;;;;;;19.95;15.77;;;;;;;18.21;100.00;101486.06;5071717;28;20052;-71
2023/09/09 01:42:16;;;;;;;22.92;16.20;;;;;;;18.16;100.00;101481.38;5069928;28;20488;-71
2023/09/09 01:44:46;;;;;;;21.17;15.20;;;;;;;18.11;100.00;101492.84;5071691;28;20550;-71
2023/09/09 01:47:13;;;;;;;20.92;15.00;;;;;;;18.00;100.00;101482.00;5071688;28;20040;-71
2023/09/09 01:49:40;;;;;;;21.42;14.88;;;;;;;18.04;100.00;101484.03;5052268;28;20055;-71
2023/09/09 01:52:05;;;;;;;21.27;14.95;;;;;;;17.95;100.00;101472.75;5071296;28;20032;-71
2023/09/09 01:54:31;;;;;;;20.35;14.35;;;;;;;18.06;100.00;101483.81;5069947;28;20108;-71
2023/09/09 01:56:56;;;;;;;22.00;15.20;;;;;;;18.06;100.00;101481.09;5071336;28;20040;-71
2023/09/09 01:59:21;;;;;;;19.60;14.68;;;;;;;18.08;100.00;101481.72;5071119;28;20040;-71
2023/09/09 02:01:47;;;;;;;21.05;15.63;;;;;;;18.11;100.00;101486.63;5071578;28;20483;-71
2023/09/09 02:04:12;;;;;;;20.65;14.10;;;;;;;18.15;100.00;101487.81;5071166;28;20020;-71
2023/09/09 02:06:37;;;;;;;21.40;15.13;;;;;;;18.15;100.00;101487.81;5071102;28;20071;-71
2023/09/09 02:09:03;;;;;;;20.52;14.93;;;;;;;18.13;100.00;101484.50;5071246;28;20475;-71
2023/09/09 02:11:29;;;;;;;25.63;17.10;;;;;;;18.10;100.00;101485.81;5071102;28;20036;-71
2023/09/09 02:13:54;;;;;;;23.08;16.25;;;;;;;18.12;100.00;101478.28;5071142;28;20033;-71
2023/09/09 02:16:20;;;;;;;24.95;17.15;;;;;;;18.06;100.00;101467.63;5071067;28;20052;-71
2023/09/09 02:18:46;;;;;;;22.13;15.85;;;;;;;18.18;100.00;101479.25;5071032;28;20036;-71
2023/09/09 02:21:11;;;;;;;24.63;16.83;;;;;;;18.12;100.00;101477.47;5069244;28;20044;-71
2023/09/09 02:23:39;;;;;;;22.75;14.57;;;;;;;18.07;100.00;101471.94;5070909;28;20074;-71
2023/09/09 02:26:04;;;;;;;23.67;16.52;;;;;;;17.98;100.00;101466.06;5070766;28;20028;-71
2023/09/09 02:28:30;;;;;;;22.85;16.98;;;;;;;18.01;100.00;101475.56;5070645;28;20033;-71
2023/09/09 02:30:56;;;;;;;21.35;15.55;;;;;;;18.00;100.00;101474.75;5070657;28;20048;-71
2023/09/09 02:33:21;;;;;;;24.00;16.23;;;;;;;18.04;100.00;101480.50;5070197;28;20041;-71
2023/09/09 02:35:46;;;;;;;23.15;17.45;;;;;;;17.95;100.00;101472.75;5070608;28;20089;-70
2023/09/09 02:38:12;;;;;;;20.55;15.80;;;;;;;17.93;100.00;101480.25;5070683;28;20384;-71
2023/09/09 02:40:37;;;;;;;23.33;16.98;;;;;;;17.81;100.00;101468.59;5070659;28;20025;-71
2023/09/09 02:43:03;;;;;;;21.42;15.38;;;;;;;17.84;100.00;101473.53;5070445;28;20104;-71
2023/09/09 02:45:28;;;;;;;21.73;16.00;;;;;;;17.87;100.00;101474.97;5070806;28;20479;-71
2023/09/09 02:47:53;;;;;;;25.27;19.40;;;;;;;17.85;100.00;101475.19;5070196;28;20400;-71
2023/09/09 02:50:19;;;;;;;25.40;19.30;;;;;;;17.84;100.00;101475.41;5070528;28;20468;-71
2023/09/09 02:52:44;;;;;;;27.17;19.77;;;;;;;17.84;100.00;101484.34;5070309;28;20040;-71
2023/09/09 02:55:10;;;;;;;27.88;19.95;;;;;;;17.84;100.00;101484.34;5070218;28;20062;-71
2023/09/09 02:57:35;;;;;;;23.63;15.65;;;;;;;17.84;100.00;101488.88;5070798;28;20071;-71
2023/09/09 03:00:01;;;;;;;31.58;18.15;;;;;;;17.80;100.00;101488.53;5068669;28;20020;-71
2023/09/09 03:02:26;;;;;;;24.80;17.42;;;;;;;17.71;100.00;101487.16;5070017;28;20468;-71
2023/09/09 03:04:51;;;;;;;27.92;19.10;;;;;;;17.59;100.00;101491.72;5068740;28;20041;-71
2023/09/09 03:07:17;;;;;;;24.83;19.50;;;;;;;17.58;100.00;101481.94;5051939;28;20084;-70
2023/09/09 03:09:42;;;;;;;25.40;19.15;;;;;;;17.55;100.00;101477.81;5050695;28;20498;-71
2023/09/09 03:12:08;;;;;;;24.45;18.02;;;;;;;17.60;100.00;101480.66;5050786;28;20075;-71
2023/09/09 03:14:33;;;;;;;27.05;19.25;;;;;;;17.62;100.00;101478.56;5050514;28;20024;-71
2023/09/09 03:16:59;;;;;;;23.98;16.50;;;;;;;17.65;100.00;101480.81;5049342;28;20136;-71
2023/09/09 03:19:24;;;;;;;22.52;17.52;;;;;;;17.67;100.00;101486.00;5050738;28;20036;-71
2023/09/09 03:21:50;;;;;;;26.65;18.40;;;;;;;17.70;100.00;101486.34;5050109;28;20032;-71
2023/09/09 03:24:15;;;;;;;27.30;19.98;;;;;;;17.71;100.00;101489.84;5050457;28;20488;-71
2023/09/09 03:26:41;;;;;;;27.88;20.10;;;;;;;17.71;100.00;101484.47;5050342;28;20071;-71
2023/09/09 03:29:06;;;;;;;25.88;19.95;;;;;;;17.73;100.00;101493.97;5050627;28;20031;-71
2023/09/09 03:31:33;;;;;;;28.80;19.67;;;;;;;17.77;100.00;101488.97;5050302;28;20492;-71
2023/09/09 03:33:59;;;;;;;25.42;18.38;;;;;;;17.75;100.00;101477.56;5049106;28;20459;-71
2023/09/09 03:36:24;;;;;;;27.98;19.80;;;;;;;17.74;100.00;101484.84;5050353;28;20059;-71
2023/09/09 03:38:49;;;;;;;28.13;19.75;;;;;;;17.74;100.00;101487.56;5049021;28;20364;-71
2023/09/09 03:41:15;;;;;;;27.25;21.42;;;;;;;17.68;100.00;101482.22;5069243;28;20082;-71
2023/09/09 03:43:40;;;;;;;29.33;23.52;;;;;;;17.59;100.00;101470.13;5067769;28;20027;-71
2023/09/09 03:46:06;;;;;;;28.15;22.35;;;;;;;17.63;100.00;101484.78;5067936;28;20032;-71
2023/09/09 03:48:31;;;;;;;26.35;18.67;;;;;;;17.60;100.00;101487.94;5069091;28;20033;-71
2023/09/09 03:51:01;;;;;;;27.92;20.00;;;;;;;17.62;100.00;101485.84;5067757;28;20101;-71
2023/09/09 03:53:27;;;;;;;26.35;18.83;;;;;;;17.57;100.00;101489.22;5068947;28;20036;-71
2023/09/09 03:55:53;;;;;;;29.10;22.70;;;;;;;17.57;100.00;101491.09;5069179;28;20040;-71
2023/09/09 03:58:19;;;;;;;25.27;20.40;;;;;;;17.50;100.00;101483.94;5069141;28;20032;-71
2023/09/09 04:00:46;;;;;;;30.25;19.48;;;;;;;17.48;100.00;101486.03;5068970;28;20656;-71
2023/09/09 04:03:12;;;;;;;24.40;17.83;;;;;;;17.49;100.00;101493.06;5049799;28;20443;-70
2023/09/09 04:05:37;;;;;;;28.90;20.70;;;;;;;17.43;100.00;101490.47;5049756;28;20064;-71
2023/09/09 04:08:08;;;;;;;28.60;21.63;;;;;;;17.36;100.00;101495.09;5050004;28;20483;-71
2023/09/09 04:10:33;;;;;;;29.70;25.27;;;;;;;17.29;100.00;101493.31;5051886;28;20089;-71
2023/09/09 04:12:59;;;;;;;30.10;21.77;;;;;;;17.31;100.00;101495.75;5067449;28;20405;-70
2023/09/09 04:15:24;;;;;;;31.60;22.98;;;;;;;17.28;100.00;101488.94;5068810;28;20085;-71
2023/09/09 04:17:49;;;;;;;28.60;21.30;;;;;;;17.28;100.00;101493.53;5068754;28;20502;-71
2023/09/09 04:20:15;;;;;;;29.48;22.23;;;;;;;17.24;100.00;101493.16;5067487;28;20510;-71
2023/09/09 04:22:40;;;;;;;28.90;21.95;;;;;;;17.30;100.00;101494.13;5068822;28;20035;-70
2023/09/09 04:25:06;;;;;;;27.17;21.95;;;;;;;17.27;100.00;101494.59;5068735;28;20033;-71
2023/09/09 04:27:31;;;;;;;28.42;20.02;;;;;;;17.23;100.00;101491.50;5068647;28;20127;-71
2023/09/09 04:29:57;;;;;;;26.77;19.25;;;;;;;17.24;100.00;101495.88;5067437;28;20464;-71
2023/09/09 04:32:22;;;;;;;31.10;22.48;;;;;;;17.24;100.00;101493.16;5068582;28;20115;-70
2023/09/09 04:34:48;;;;;;;29.67;21.77;;;;;;;17.18;100.00;101491.34;5068282;28;20060;-71
2023/09/09 04:37:14;;;;;;;26.48;21.13;;;;;;;17.16;100.00;101498.00;5067329;28;20395;-71
2023/09/09 04:39:39;;;;;;;30.60;22.23;;;;;;;17.13;100.00;101485.00;5068665;28;20036;-71
2023/09/09 04:42:05;;;;;;;27.23;21.67;;;;;;;17.08;100.00;101489.19;5068758;28;20025;-71
2023/09/09 04:44:30;;;;;;;26.67;19.70;;;;;;;17.06;100.00;101493.16;5066855;28;20028;-71
2023/09/09 04:46:55;;;;;;;28.13;20.30;;;;;;;17.02;100.00;101486.56;5068354;28;20040;-72
2023/09/09 04:49:22;;;;;;;29.52;22.77;;;;;;;17.03;100.00;101497.13;5050644;28;20161;-71
2023/09/09 04:51:48;;;;;;;37.90;31.42;;;;;;;17.02;100.00;101503.53;5068482;28;20065;-71
2023/09/09 04:54:13;;;;;;;29.27;23.23;;;;;;;16.94;100.00;101495.75;5066876;28;20033;-71
2023/09/09 04:56:39;;;;;;;36.35;25.35;;;;;;;16.96;100.00;101504.44;5068377;28;20123;-71
2023/09/09 04:59:04;;;;;;;46.72;33.83;;;;;;;16.98;100.00;101501.53;5068094;28;20422;-71
2023/09/09 05:01:30;;;;;;;34.33;26.88;;;;;;;16.94;100.00;101500.34;5067987;28;20094;-71
2023/09/09 05:03:55;;;;;;;31.23;22.98;;;;;;;16.92;100.00;101499.72;5067704;28;20119;-71
2023/09/09 05:06:21;;;;;;;31.88;24.25;;;;;;;16.92;100.00;101494.34;5067651;28;20078;-71
2023/09/09 05:08:46;;;;;;;29.45;23.65;;;;;;;16.95;100.00;101507.34;5067697;28;20082;-71
2023/09/09 05:11:12;;;;;;;35.78;29.02;;;;;;;16.98;100.00;101507.75;5068022;28;20032;-71
2023/09/09 05:13:37;;;;;;;46.10;37.45;;;;;;;17.06;100.00;101504.75;5066166;28;20379;-71
2023/09/09 05:16:03;;;;;;;44.30;35.70;;;;;;;17.08;100.00;101513.47;5062275;28;20404;-71
2023/09/09 05:18:28;;;;;;;50.40;41.70;;;;;;;17.09;100.00;101509.69;5068007;28;20131;-71
2023/09/09 05:20:54;;;;;;;56.13;40.17;;;;;;;17.10;100.00;101513.22;5062905;28;21123;-70
2023/09/09 05:23:19;;;;;;;54.08;39.17;;;;;;;17.03;100.00;101509.78;5048658;28;20538;-71
2023/09/09 05:25:44;;;;;;;44.75;35.78;;;;;;;17.02;100.00;101517.03;5048017;28;20060;-71
2023/09/09 05:28:10;;;;;;;43.60;33.15;;;;;;;16.97;100.00;101524.94;5047663;28;20037;-71
2023/09/09 05:30:40;;;;;;;41.55;32.80;;;;;;;16.91;100.00;101508.88;5067302;28;20460;-71
2023/09/09 05:33:05;;;;;;;50.83;37.30;;;;;;;16.97;100.00;101519.56;5050871;28;20143;-71
2023/09/09 05:35:31;;;;;;;48.40;37.40;;;;;;;16.99;100.00;101511.25;5048919;28;20572;-71
2023/09/09 05:37:56;;;;;;;42.83;34.17;;;;;;;16.93;100.00;101515.69;5047345;28;20029;-71
2023/09/09 05:40:22;;;;;;;49.13;37.80;;;;;;;16.95;100.00;101518.13;5048839;28;20516;-71
2023/09/09 05:42:47;;;;;;;40.25;33.80;;;;;;;16.94;100.00;101520.00;5067840;28;20029;-71
2023/09/09 05:45:12;;;;;;;43.20;34.28;;;;;;;16.93;100.00;101521.06;5066545;28;20037;-71
2023/09/09 05:47:38;;;;;;;45.22;36.95;;;;;;;16.97;100.00;101527.66;5055100;28;20091;-71
2023/09/09 05:50:05;;;;;;;48.47;39.88;;;;;;;16.96;100.00;101528.69;5065544;28;20033;-70
2023/09/09 05:52:30;;;;;;;44.78;37.88;;;;;;;16.93;100.00;101522.94;5067857;28;20043;-71
2023/09/09 05:54:56;;;;;;;49.33;40.67;;;;;;;17.01;100.00;101538.81;5067884;28;20020;-70
2023/09/09 05:57:21;;;;;;;50.28;38.28;;;;;;;16.96;100.00;101530.59;5069774;28;20059;-71
2023/09/09 05:59:47;;;;;;;54.92;43.90;;;;;;;16.98;100.00;101532.00;5070026;28;20036;-71
2023/09/09 06:02:12;;;;;;;50.17;39.33;;;;;;;16.99;100.00;101532.81;5071110;28;20042;-71
2023/09/09 06:04:37;;;;;;;49.72;38.75;;;;;;;16.96;100.00;101530.59;5070037;28;20777;-72
2023/09/09 06:07:04;;;;;;;49.40;42.67;;;;;;;16.97;100.00;101540.31;5071375;28;20141;-71
2023/09/09 06:09:29;;;;;;;65.05;44.35;;;;;;;16.97;100.00;101540.31;5071532;28;20040;-71
2023/09/09 06:11:54;;;;;;;56.55;43.38;;;;;;;17.01;100.00;101547.72;5071138;28;20039;-71
2023/09/09 06:14:20;;;;;;;55.60;45.22;;;;;;;17.00;100.00;101539.84;5070967;28;20108;-71
2023/09/09 06:16:45;;;;;;;58.45;46.92;;;;;;;17.03;100.00;101534.03;5071020;28;20131;-71
2023/09/09 06:19:10;;;;;;;80.40;52.17;;;;;;;17.08;100.00;101545.81;5070827;28;20078;-71
2023/09/09 06:21:36;;;;;;;72.20;51.72;;;;;;;17.13;100.00;101552.38;5070880;28;20032;-71
2023/09/09 06:24:02;;;;;;;86.55;55.50;;;;;;;17.18;100.00;101552.53;5070814;28;20024;-71
2023/09/09 06:26:32;;;;;;;85.82;53.80;;;;;;;17.18;100.00;101547.13;5070802;28;20068;-71
2023/09/09 06:28:57;;;;;;;87.35;51.90;;;;;;;17.25;100.00;101550.59;5067543;28;20120;-71
2023/09/09 06:31:23;;;;;;;87.43;58.78;;;;;;;17.24;100.00;101560.56;5051332;28;20155;-71
2023/09/09 06:33:48;;;;;;;92.80;56.72;;;;;;;17.26;100.00;101558.44;5051518;28;20039;-71
2023/09/09 06:36:13;;;;;;;83.53;55.42;;;;;;;17.27;100.00;101557.41;5051025;28;20484;-71
2023/09/09 06:38:39;;;;;;;75.57;55.50;;;;;;;17.34;100.00;101568.09;5051599;28;20047;-72
2023/09/09 06:41:04;;;;;;;98.45;55.25;;;;;;;17.39;100.00;101567.44;5053918;28;20040;-71
2023/09/09 06:43:29;;;;;;;81.55;56.45;;;;;;;17.43;100.00;101572.19;5051244;28;20029;-71
2023/09/09 06:45:56;;;;;;;89.25;56.95;;;;;;;17.45;100.00;101572.78;5051328;28;20075;-71
2023/09/09 06:48:22;;;;;;;83.28;58.38;;;;;;;17.48;100.00;101577.72;5070050;28;20502;-71
2023/09/09 06:50:47;;;;;;;74.07;56.78;;;;;;;17.50;100.00;101572.94;5070392;28;20029;-71
2023/09/09 06:53:14;;;;;;;80.03;54.13;;;;;;;17.55;100.00;101576.81;5068949;28;20031;-71
2023/09/09 06:55:41;;;;;;;73.40;53.97;;;;;;;17.67;100.00;101583.09;5070228;28;20035;-71
2023/09/09 06:58:07;;;;;;;72.57;54.42;;;;;;;17.69;100.00;101578.31;5068875;28;20043;-71
2023/09/09 07:00:32;;;;;;;75.35;55.25;;;;;;;17.75;100.00;101577.41;5070242;28;20032;-71
2023/09/09 07:02:58;;;;;;;70.85;53.88;;;;;;;17.78;100.00;101584.22;5062505;28;20280;-71
2023/09/09 07:05:24;;;;;;;72.82;59.50;;;;;;;17.84;100.00;101581.50;5051058;28;20040;-71
2023/09/09 07:07:49;;;;;;;73.30;57.88;;;;;;;17.82;100.00;101570.09;5050757;28;20032;-71
2023/09/09 07:10:15;;;;;;;64.07;54.92;;;;;;;17.93;100.00;101588.19;5069235;28;20421;-70
2023/09/09 07:12:42;;;;;;;64.25;56.97;;;;;;;17.95;100.00;101591.50;5068271;28;20098;-71
2023/09/09 07:15:08;;;;;;;70.03;53.83;;;;;;;18.01;100.00;101594.34;5069876;28;20024;-71
2023/09/09 07:17:33;;;;;;;70.03;58.53;;;;;;;18.11;100.00;101598.16;5070173;28;20396;-71
2023/09/09 07:19:59;;;;;;;72.75;59.15;;;;;;;18.12;100.00;101596.25;5069822;28;20032;-71
2023/09/09 07:22:25;;;;;;;62.58;52.58;;;;;;;18.15;100.00;101595.81;5067958;28;20042;-71
2023/09/09 07:24:50;;;;;;;74.18;56.17;;;;;;;18.18;100.00;101606.13;5069794;28;20028;-71
2023/09/09 07:27:16;;;;;;;74.18;54.90;;;;;;;18.21;100.00;101599.47;5061254;28;20024;-71
2023/09/09 07:29:41;;;;;;;79.82;62.65;;;;;;;18.26;100.00;101603.16;5069542;28;20078;-73
2023/09/09 07:32:06;;;;;;;81.15;62.42;;;;;;;18.31;100.00;101605.97;5069396;28;20650;-71
2023/09/09 07:34:34;;;;;;;82.75;61.75;;;;;;;18.36;100.00;101606.09;5068249;28;20094;-71
2023/09/09 07:36:59;;;;;;;89.13;63.33;;;;;;;18.36;100.00;101605.28;5069229;28;20144;-71
2023/09/09 07:39:29;;;;;;;101.63;64.68;;;;;;;18.36;100.00;101594.47;5069533;28;20460;-72
2023/09/09 07:41:54;;;;;;;96.43;65.93;;;;;;;18.35;100.00;101609.84;5069477;28;20467;-71
2023/09/09 07:44:19;;;;;;;95.13;65.22;;;;;;;18.34;100.00;101602.81;5069532;28;20109;-72
2023/09/09 07:46:45;;;;;;;87.30;66.63;;;;;;;18.39;100.00;101610.22;5057505;28;20491;-72
2023/09/09 07:49:10;;;;;;;93.57;66.20;;;;;;;18.40;100.00;101606.47;5069403;28;20368;-71
2023/09/09 07:51:36;;;;;;;97.07;69.88;;;;;;;18.53;100.00;101617.06;5068016;28;20077;-71
2023/09/09 07:54:01;;;;;;;101.38;73.13;;;;;;;18.61;100.00;101616.75;5055752;28;20033;-71
2023/09/09 07:56:26;;;;;;;107.50;76.50;;;;;;;18.62;100.00;101629.19;5049783;28;20392;-71
2023/09/09 07:58:52;;;;;;;106.03;77.15;;;;;;;18.74;100.00;101625.69;5050200;28;20072;-74
2023/09/09 08:01:17;;;;;;;108.03;74.93;;;;;;;18.85;100.00;101618.69;5061758;28;20043;-70
2023/09/09 08:03:43;;;;;;;107.88;78.25;;;;;;;18.93;100.00;101624.56;5048792;28;20044;-74
2023/09/09 08:06:08;;;;;;;109.97;80.03;;;;;;;18.95;100.00;101622.47;5050165;28;20124;-72
2023/09/09 08:08:35;;;;;;;113.78;79.30;;;;;;;18.91;100.00;101623.97;5050031;28;20025;-74
2023/09/09 08:11:04;;;;;;;100.28;74.38;;;;;;;18.99;100.00;101626.38;5049663;28;20137;-72
2023/09/09 08:13:30;;;;;;;102.50;75.72;;;;;;;19.07;100.00;101621.66;5049538;28;20062;-73
2023/09/09 08:15:58;;;;;;;106.30;76.15;;;;;;;19.21;100.00;101623.91;5050359;28;20106;-70
2023/09/09 08:18:23;;;;;;;100.05;73.80;;;;;;;19.32;100.00;101632.25;5050384;28;20028;-71
2023/09/09 08:20:50;;;;;;;105.53;76.90;;;;;;;19.35;100.00;101621.78;5048851;28;20036;-73
2023/09/09 08:23:15;;;;;;;97.40;75.72;;;;;;;19.34;100.00;101625.53;5048608;28;20108;-73
2023/09/09 08:25:40;;;;;;;115.35;82.85;;;;;;;19.44;100.00;101625.78;5048977;28;20029;-74
2023/09/09 08:28:06;;;;;;;99.07;75.97;;;;;;;19.72;100.00;101628.81;5050166;28;20480;-73
2023/09/09 08:30:31;;;;;;;100.53;75.18;;;;;;;20.05;100.00;101630.84;5051080;28;20028;-73
2023/09/09 08:32:56;;;;;;;110.35;82.30;;;;;;;20.02;100.00;101631.34;5050083;28;20024;-73
2023/09/09 08:35:23;;;;;;;110.22;82.93;;;;;;;20.02;100.00;101636.75;5048562;28;20503;-73
2023/09/09 08:37:49;;;;;;;115.25;84.38;;;;;;;20.04;100.00;101642.72;5047690;28;20056;-73
2023/09/09 08:40:14;;;;;;;109.53;82.72;;;;;;;20.18;100.00;101637.88;5048095;28;20037;-73
2023/09/09 08:42:56;;;;;;;105.18;79.47;;;;;;;20.32;100.00;101637.31;5047878;28;20117;-73
2023/09/09 08:45:38;;;;;;;111.43;80.50;;;;;;;20.41;100.00;101642.34;5048978;28;20032;-73
2023/09/09 08:48:09;;;;;;;94.97;68.65;;;;;;;20.50;100.00;101639.00;5049836;28;20025;-73
2023/09/09 08:50:38;;;;;;;95.18;76.90;;;;;;;20.68;100.00;101640.72;5049316;28;20032;-73
2023/09/09 08:53:05;;;;;;;92.50;72.93;;;;;;;20.79;100.00;101647.94;5048117;28;20059;-74
2023/09/09 08:55:31;;;;;;;74.82;62.80;;;;;;;20.89;100.00;101646.47;5048223;28;20033;-73
2023/09/09 08:57:57;;;;;;;79.68;61.50;;;;;;;21.01;100.00;101650.75;5049764;28;20033;-73
2023/09/09 09:00:27;;;;;;;77.95;61.50;;;;;;;21.09;100.00;101645.97;5049094;28;20031;-73
2023/09/09 09:02:54;;;;;;;71.43;56.40;;;;;;;21.16;100.00;101642.03;5049553;28;20459;-73
2023/09/09 09:05:20;;;;;;;67.90;57.47;;;;;;;21.32;100.00;101651.22;5047643;28;20523;-73
2023/09/09 09:07:45;;;;;;;67.93;53.63;;;;;;;21.39;100.00;101651.91;5049028;28;20468;-74
2023/09/09 09:10:11;;;;;;;66.10;51.67;;;;;;;21.53;100.00;101652.34;5050184;28;20042;-73
2023/09/09 09:12:40;;;;;;;55.90;46.53;;;;;;;21.62;100.00;101652.75;5049516;28;20025;-74
2023/09/09 09:15:06;;;;;;;65.45;51.63;;;;;;;21.68;100.00;101649.03;5047250;28;20115;-74
2023/09/09 09:17:32;;;;;;;63.33;50.88;;;;;;;21.78;100.00;101645.63;5049749;28;20070;-74
2023/09/09 09:19:57;;;;;;;61.95;48.45;;;;;;;21.91;100.00;101647.16;5048734;28;20628;-74
2023/09/09 09:22:23;;;;;;;60.72;48.58;;;;;;;21.99;100.00;101650.25;5048424;28;20036;-74
2023/09/09 09:24:48;;;;;;;63.38;48.85;;;;;;;22.11;100.00;101660.97;5049912;28;20043;-74
2023/09/09 09:27:15;;;;;;;53.38;45.38;;;;;;;22.20;100.00;101662.19;5049736;28;20040;-74
2023/09/09 09:29:42;;;;;;;43.60;36.35;;;;;;;22.31;100.00;101661.22;5050495;28;20037;-72
2023/09/09 09:32:09;;;;;;;46.47;38.83;;;;;;;22.37;100.00;101664.00;5050202;28;20107;-74
2023/09/09 09:34:35;;;;;;;53.90;43.35;;;;;;;22.48;100.00;101663.03;5052024;28;20063;-74
2023/09/09 09:37:11;;;;;;;58.05;47.08;;;;;;;22.62;100.00;101661.53;5051679;28;20080;-74
2023/09/09 09:39:37;;;;;;;58.35;46.67;;;;;;;22.67;100.00;101663.50;5052705;28;20536;-73
2023/09/09 09:42:03;;;;;;;55.03;44.45;;;;;;;22.82;100.00;101660.06;5052359;28;20499;-74
2023/09/09 09:44:29;;;;;;;54.45;47.08;;;;;;;22.90;100.00;101657.72;5034139;28;20053;-74
2023/09/09 09:46:58;;;;;;;58.58;47.35;;;;;;;22.99;100.00;101654.53;5052762;28;20019;-73
2023/09/09 09:49:35;;;;;;;64.55;52.10;;;;;;;23.10;100.00;101650.81;5051435;28;20021;-74
2023/09/09 09:52:01;;;;;;;63.70;50.25;;;;;;;23.18;100.00;101651.13;5051703;28;20120;-72
2023/09/09 09:54:26;;;;;;;62.70;50.88;;;;;;;23.20;100.00;101656.31;5052684;28;20822;-72
2023/09/09 09:57:00;;;;;;;57.75;48.80;;;;;;;23.31;100.00;101649.84;5051423;28;20086;-74
2023/09/09 09:59:29;;;;;;;54.38;45.38;;;;;;;23.35;100.00;101645.53;5052372;28;20055;-73
2023/09/09 10:01:55;;;;;;;53.80;44.58;;;;;;;23.36;100.00;101638.19;5051653;28;20457;-74
2023/09/09 10:04:22;;;;;;;50.83;43.17;;;;;;;23.44;100.00;101654.03;5050792;28;20092;-74
2023/09/09 10:06:50;;;;;;;61.80;43.63;;;;;;;23.57;100.00;101652.72;5052106;28;20456;-74
2023/09/09 10:09:23;;;;;;;50.90;43.63;;;;;;;23.60;100.00;101646.75;5052483;28;20533;-74
2023/09/09 10:11:54;;;;;;;55.70;44.97;;;;;;;23.67;100.00;101646.53;5053017;28;20453;-74
2023/09/09 10:14:24;;;;;;;49.97;41.53;;;;;;;23.84;100.00;101638.97;5051907;28;20059;-74
2023/09/09 10:16:51;;;;;;;49.08;40.45;;;;;;;23.99;100.00;101643.69;5052515;28;20035;-76
2023/09/09 10:19:18;;;;;;;42.13;32.55;;;;;;;24.04;100.00;101641.78;5052826;28;20021;-76
2023/09/09 10:21:44;;;;;;;46.75;34.15;;;;;;;24.13;100.00;101644.00;5050722;28;20029;-76
2023/09/09 10:24:10;;;;;;;47.97;36.88;;;;;;;24.13;100.00;101638.53;5050743;28;20033;-75
2023/09/09 10:26:37;;;;;;;44.17;34.40;;;;;;;24.13;100.00;101635.81;5053201;28;20025;-75
2023/09/09 10:29:03;;;;;;;34.75;30.48;;;;;;;24.30;100.00;101641.84;5050692;28;21659;-75
2023/09/09 10:31:30;;;;;;;37.30;29.35;;;;;;;24.42;100.00;101641.63;5051375;28;20151;-75
2023/09/09 10:33:57;;;;;;;38.17;27.77;;;;;;;24.43;100.00;101633.16;5051961;28;20043;-75
2023/09/09 10:36:24;;;;;;;31.38;22.17;;;;;;;24.52;98.83;101649.81;5052664;28;20143;-75
2023/09/09 10:38:52;;;;;;;27.90;21.83;;;;;;;24.54;96.46;101649.56;5051453;28;21483;-75
2023/09/09 10:41:17;;;;;;;22.58;15.38;;;;;;;24.62;97.06;101644.38;5052245;28;20530;-75
2023/09/09 10:43:43;;;;;;;24.05;16.23;;;;;;;24.66;93.34;101641.94;5053080;28;20020;-75
2023/09/09 10:46:08;;;;;;;21.17;13.98;;;;;;;24.72;94.33;101635.38;5052050;28;20038;-75
2023/09/09 10:48:34;;;;;;;21.42;12.02;;;;;;;24.79;94.32;101646.84;5052754;28;20020;-75
2023/09/09 10:51:04;;;;;;;18.13;11.15;;;;;;;24.89;93.24;101641.41;5049086;28;20020;-75
2023/09/09 10:53:31;;;;;;;19.70;12.43;;;;;;;24.89;87.40;101635.94;5050604;28;20106;-75
2023/09/09 10:56:21;;;;;;;21.45;13.13;;;;;;;24.96;91.96;101634.84;5051244;28;20035;-75
2023/09/09 10:58:49;;;;;;;18.75;12.82;;;;;;;24.93;93.92;101639.75;5048199;28;20116;-75